Time,TemperatureF,DewpointF,PressureIn,WindDirection,WindDirectionDegrees,WindSpeedMPH,WindSpeedGustMPH,Humidity,HourlyPrecipIn,Conditions,Clouds,dailyrainin,SolarRadiationWatts/m^2,SoftwareType,DateUTC
2013-03-29 00:22:00,43.0,27.0,-100.00,SE,146,11.0,15.0,53,0.00,,,-99.99,0.000000,,2013-03-29 06:22:00,
2013-03-29 00:32:00,43.0,27.0,-100.00,SE,146,11.0,15.0,53,0.00,,,-99.99,0.000000,,2013-03-29 06:32:00,
2013-03-29 00:42:00,43.0,27.0,-100.00,SE,146,11.0,15.0,53,0.00,,,-99.99,0.000000,,2013-03-29 06:42:00,
2013-03-29 00:52:00,43.0,27.0,-100.00,SE,146,11.0,15.0,53,0.00,,,-99.99,0.000000,,2013-03-29 06:52:00,
2013-03-29 01:22:00,40.0,25.0,-100.00,SSE,156,8.0,15.0,55,0.00,,,-99.99,0.000000,,2013-03-29 07:22:00,
2013-03-29 01:32:00,40.0,25.0,-100.00,SSE,156,8.0,15.0,55,0.00,,,-99.99,0.000000,,2013-03-29 07:32:00,
2013-03-29 01:42:00,40.0,25.0,-100.00,SSE,156,8.0,15.0,55,0.00,,,-99.99,0.000000,,2013-03-29 07:42:00,
2013-03-29 01:52:00,40.0,25.0,-100.00,SSE,156,8.0,15.0,55,0.00,,,-99.99,0.000000,,2013-03-29 07:52:00,
2013-03-29 02:32:00,40.0,27.0,-100.00,SE,143,10.0,13.0,59,0.00,,,-99.99,0.000000,,2013-03-29 08:32:00,
2013-03-29 02:42:00,40.0,27.0,-100.00,SE,143,10.0,13.0,59,0.00,,,-99.99,0.000000,,2013-03-29 08:42:00,
2013-03-29 02:52:00,40.0,27.0,-100.00,SE,143,10.0,13.0,59,0.00,,,-99.99,0.000000,,2013-03-29 08:52:00,
2013-03-29 03:22:00,40.0,26.0,-100.00,SE,127,5.0,12.0,58,0.00,,,-99.99,0.000000,,2013-03-29 09:22:00,
2013-03-29 03:32:00,40.0,26.0,-100.00,SE,127,5.0,12.0,58,0.00,,,-99.99,0.000000,,2013-03-29 09:32:00,
2013-03-29 03:42:00,40.0,26.0,-100.00,SE,127,5.0,12.0,58,0.00,,,-99.99,0.000000,,2013-03-29 09:42:00,
2013-03-29 03:52:00,40.0,26.0,-100.00,SE,127,5.0,12.0,58,0.00,,,-99.99,0.000000,,2013-03-29 09:52:00,
2013-03-29 04:22:00,39.0,25.0,-100.00,ESE,122,6.0,9.0,58,0.00,,,-99.99,0.000000,,2013-03-29 10:22:00,
2013-03-29 04:33:00,39.0,25.0,-100.00,ESE,122,6.0,9.0,58,0.00,,,-99.99,0.000000,,2013-03-29 10:33:00,
2013-03-29 04:42:00,39.0,25.0,-100.00,ESE,122,6.0,9.0,58,0.00,,,-99.99,0.000000,,2013-03-29 10:42:00,
2013-03-29 04:52:00,39.0,25.0,-100.00,ESE,122,6.0,9.0,58,0.00,,,-99.99,0.000000,,2013-03-29 10:52:00,
2013-03-29 05:32:00,34.0,25.0,-100.00,SW,236,4.0,9.0,70,0.00,,,-99.99,0.000000,,2013-03-29 11:32:00,
2013-03-29 05:42:00,34.0,25.0,-100.00,SW,236,4.0,9.0,70,0.00,,,-99.99,0.000000,,2013-03-29 11:42:00,
2013-03-29 05:52:00,34.0,25.0,-100.00,SW,236,4.0,9.0,70,0.00,,,-99.99,0.000000,,2013-03-29 11:52:00,
2013-03-29 06:32:00,36.0,25.0,-100.00,SE,126,8.0,9.0,64,0.00,,,-99.99,0.000000,,2013-03-29 12:32:00,
2013-03-29 06:42:00,36.0,25.0,-100.00,SE,126,8.0,9.0,64,0.00,,,-99.99,0.000000,,2013-03-29 12:42:00,
2013-03-29 06:52:00,36.0,25.0,-100.00,SE,126,8.0,9.0,64,0.00,,,-99.99,0.000000,,2013-03-29 12:52:00,
2013-03-29 07:22:00,38.0,28.0,-100.00,ESE,111,2.0,10.0,67,0.00,,,-99.99,0.000000,,2013-03-29 13:22:00,
2013-03-29 07:32:00,38.0,28.0,-100.00,ESE,111,2.0,10.0,67,0.00,,,-99.99,0.000000,,2013-03-29 13:32:00,
2013-03-29 07:42:00,38.0,28.0,-100.00,ESE,111,2.0,10.0,67,0.00,,,-99.99,0.000000,,2013-03-29 13:42:00,
2013-03-29 07:52:00,38.0,28.0,-100.00,ESE,111,2.0,10.0,67,0.00,,,-99.99,0.000000,,2013-03-29 13:52:00,
2013-03-29 08:22:00,37.0,26.0,-100.00,SE,137,7.0,9.0,64,0.00,,,-99.99,44.000000,,2013-03-29 14:22:00,
2013-03-29 08:32:00,37.0,26.0,-100.00,SE,137,7.0,9.0,64,0.00,,,-99.99,44.000000,,2013-03-29 14:32:00,
2013-03-29 08:42:00,37.0,26.0,-100.00,SE,137,7.0,9.0,64,0.00,,,-99.99,44.000000,,2013-03-29 14:42:00,
2013-03-29 08:52:00,37.0,26.0,-100.00,SE,137,7.0,9.0,64,0.00,,,-99.99,44.000000,,2013-03-29 14:52:00,
2013-03-29 09:22:00,40.0,29.0,-100.00,SSE,157,5.0,9.0,65,0.00,,,-99.99,133.000000,,2013-03-29 15:22:00,
2013-03-29 09:33:00,40.0,29.0,-100.00,SSE,157,5.0,9.0,65,0.00,,,-99.99,133.000000,,2013-03-29 15:33:00,
2013-03-29 09:42:00,40.0,29.0,-100.00,SSE,157,5.0,9.0,65,0.00,,,-99.99,133.000000,,2013-03-29 15:42:00,
2013-03-29 09:52:00,40.0,29.0,-100.00,SSE,157,5.0,9.0,65,0.00,,,-99.99,133.000000,,2013-03-29 15:52:00,
2013-03-29 10:32:00,48.0,32.0,-100.00,SSE,157,6.0,10.0,53,0.00,,,-99.99,229.000000,,2013-03-29 16:32:00,
2013-03-29 10:42:00,48.0,32.0,-100.00,SSE,157,6.0,10.0,53,0.00,,,-99.99,229.000000,,2013-03-29 16:42:00,
2013-03-29 10:52:00,48.0,32.0,-100.00,SSE,157,6.0,10.0,53,0.00,,,-99.99,229.000000,,2013-03-29 16:52:00,
2013-03-29 11:33:00,58.0,34.0,-100.00,NW,309,7.0,13.0,40,0.00,,,0.00,486.000000,,2013-03-29 17:33:00,
2013-03-29 11:42:00,58.0,34.0,-100.00,NW,309,7.0,13.0,40,0.00,,,0.00,486.000000,,2013-03-29 17:42:00,
2013-03-29 11:52:00,58.0,34.0,-100.00,NW,309,7.0,13.0,40,0.00,,,0.00,486.000000,,2013-03-29 17:52:00,
2013-03-29 12:32:00,63.0,33.0,-100.00,NW,317,10.0,16.0,32,0.00,,,0.00,710.000000,,2013-03-29 18:32:00,
2013-03-29 12:42:00,63.0,33.0,-100.00,NW,317,10.0,16.0,32,0.00,,,0.00,710.000000,,2013-03-29 18:42:00,
2013-03-29 12:52:00,63.0,33.0,-100.00,NW,317,10.0,16.0,32,0.00,,,0.00,710.000000,,2013-03-29 18:52:00,
2013-03-29 13:22:00,63.0,30.0,-100.00,NNW,327,8.0,17.0,29,0.00,,,0.00,727.000000,,2013-03-29 19:22:00,
2013-03-29 13:32:00,63.0,30.0,-100.00,NNW,327,8.0,17.0,29,0.00,,,0.00,727.000000,,2013-03-29 19:32:00,
2013-03-29 13:42:00,63.0,30.0,-100.00,NNW,327,8.0,17.0,29,0.00,,,0.00,727.000000,,2013-03-29 19:42:00,
2013-03-29 13:52:00,63.0,30.0,-100.00,NNW,327,8.0,17.0,29,0.00,,,0.00,727.000000,,2013-03-29 19:52:00,
2013-03-29 14:32:00,61.0,29.0,-100.00,NW,311,10.0,20.0,30,0.00,,,0.00,459.000000,,2013-03-29 20:32:00,
2013-03-29 14:42:00,61.0,29.0,-100.00,NW,311,10.0,20.0,30,0.00,,,0.00,459.000000,,2013-03-29 20:42:00,
2013-03-29 14:52:00,61.0,29.0,-100.00,NW,311,10.0,20.0,30,0.00,,,0.00,459.000000,,2013-03-29 20:52:00,
2013-03-29 15:22:00,60.0,34.0,-100.00,West,260,11.0,22.0,37,0.00,,,0.00,284.000000,,2013-03-29 21:22:00,
2013-03-29 15:32:00,60.0,34.0,-100.00,West,260,11.0,22.0,37,0.00,,,0.00,284.000000,,2013-03-29 21:32:00,
2013-03-29 15:42:00,60.0,34.0,-100.00,West,260,11.0,22.0,37,0.00,,,0.00,284.000000,,2013-03-29 21:42:00,
2013-03-29 15:53:00,60.0,34.0,-100.00,West,260,11.0,22.0,37,0.00,,,0.00,284.000000,,2013-03-29 21:53:00,
2013-03-29 16:22:00,64.0,32.0,-100.00,West,271,9.0,20.0,30,0.00,,,0.00,484.000000,,2013-03-29 22:22:00,
2013-03-29 16:33:00,64.0,32.0,-100.00,West,271,9.0,20.0,30,0.00,,,0.00,484.000000,,2013-03-29 22:33:00,
2013-03-29 16:42:00,64.0,32.0,-100.00,West,271,9.0,20.0,30,0.00,,,0.00,484.000000,,2013-03-29 22:42:00,
2013-03-29 16:52:00,64.0,32.0,-100.00,West,271,9.0,20.0,30,0.00,,,0.00,484.000000,,2013-03-29 22:52:00,
2013-03-29 17:22:00,59.0,35.0,-100.00,NNW,337,10.0,21.0,40,0.00,,,0.00,260.000000,,2013-03-29 23:22:00,
2013-03-29 17:32:00,59.0,35.0,-100.00,NNW,337,10.0,21.0,40,0.00,,,0.00,260.000000,,2013-03-29 23:32:00,
2013-03-29 17:42:00,59.0,35.0,-100.00,NNW,337,10.0,21.0,40,0.00,,,0.00,260.000000,,2013-03-29 23:42:00,
2013-03-29 17:52:00,59.0,35.0,-100.00,NNW,337,10.0,21.0,40,0.00,,,0.00,260.000000,,2013-03-29 23:52:00,
2013-03-29 18:22:00,58.0,32.0,-100.00,NNE,28,2.0,9.0,37,0.00,,,0.00,158.000000,,2013-03-30 00:22:00,
2013-03-29 18:32:00,58.0,32.0,-100.00,NNE,28,2.0,9.0,37,0.00,,,0.00,158.000000,,2013-03-30 00:32:00,
2013-03-29 18:42:00,58.0,32.0,-100.00,NNE,28,2.0,9.0,37,0.00,,,0.00,158.000000,,2013-03-30 00:42:00,
2013-03-29 18:52:00,58.0,32.0,-100.00,NNE,28,2.0,9.0,37,0.00,,,0.00,158.000000,,2013-03-30 00:52:00,
2013-03-29 19:22:00,54.0,29.0,-100.00,WSW,243,15.0,20.0,38,0.00,,,0.00,35.000000,,2013-03-30 01:22:00,
2013-03-29 19:32:00,54.0,29.0,-100.00,WSW,243,15.0,20.0,38,0.00,,,0.00,35.000000,,2013-03-30 01:32:00,
2013-03-29 19:42:00,54.0,29.0,-100.00,WSW,243,15.0,20.0,38,0.00,,,0.00,35.000000,,2013-03-30 01:42:00,
2013-03-29 19:52:00,54.0,29.0,-100.00,WSW,243,15.0,20.0,38,0.00,,,0.00,35.000000,,2013-03-30 01:52:00,
2013-03-29 20:22:00,50.0,38.0,-100.00,West,280,15.0,25.0,62,0.00,,,0.00,4.000000,,2013-03-30 02:22:00,
2013-03-29 20:32:00,50.0,38.0,-100.00,West,280,15.0,25.0,62,0.00,,,0.00,4.000000,,2013-03-30 02:32:00,
2013-03-29 20:42:00,50.0,38.0,-100.00,West,280,15.0,25.0,62,0.00,,,0.00,4.000000,,2013-03-30 02:42:00,
2013-03-29 20:52:00,50.0,38.0,-100.00,West,280,15.0,25.0,62,0.00,,,0.00,4.000000,,2013-03-30 02:52:00,
2013-03-29 21:33:00,48.0,40.0,-100.00,SSW,197,8.0,16.0,73,0.00,,,0.00,0.000000,,2013-03-30 03:33:00,
2013-03-29 21:43:00,48.0,40.0,-100.00,SSW,197,8.0,16.0,73,0.00,,,0.00,0.000000,,2013-03-30 03:43:00,
2013-03-29 21:52:00,48.0,40.0,-100.00,SSW,197,8.0,16.0,73,0.00,,,0.00,0.000000,,2013-03-30 03:52:00,
2013-03-29 22:23:00,45.0,40.0,-100.00,SSE,154,6.0,11.0,82,0.00,,,0.00,0.000000,,2013-03-30 04:23:00,
2013-03-29 22:32:00,45.0,40.0,-100.00,SSE,154,6.0,11.0,82,0.00,,,0.00,0.000000,,2013-03-30 04:32:00,
2013-03-29 22:42:00,45.0,40.0,-100.00,SSE,154,6.0,11.0,82,0.00,,,0.00,0.000000,,2013-03-30 04:42:00,
2013-03-29 22:52:00,45.0,40.0,-100.00,SSE,154,6.0,11.0,82,0.00,,,0.00,0.000000,,2013-03-30 04:52:00,
2013-03-29 23:32:00,42.0,38.0,-100.00,SE,138,6.0,7.0,85,0.00,,,0.00,0.000000,,2013-03-30 05:32:00,